createdAt,value
2022-10-20T00:01:31.215Z,4.80
2022-10-20T00:04:19.821Z,4.82
2022-10-20T00:07:08.576Z,4.80
2022-10-20T00:09:58.516Z,4.90
2022-10-20T00:12:47.513Z,4.45
2022-10-20T00:15:36.225Z,4.40
2022-10-20T00:18:26.546Z,5.00
2022-10-20T00:21:17.539Z,4.90
2022-10-20T00:24:06.256Z,4.83
2022-10-20T00:26:56.242Z,6.60
2022-10-20T00:29:45.003Z,8.10
2022-10-20T00:32:34.182Z,7.20
2022-10-20T00:35:23.334Z,8.02
2022-10-20T00:38:12.058Z,8.37
2022-10-20T00:41:03.105Z,7.47
2022-10-20T00:43:54.905Z,7.20
2022-10-20T00:46:44.354Z,6.93
2022-10-20T00:49:33.091Z,6.03
2022-10-20T00:52:23.764Z,5.90
2022-10-20T00:55:16.546Z,5.13
2022-10-20T00:58:06.351Z,5.10
2022-10-20T01:01:00.685Z,5.13
2022-10-20T01:03:52.480Z,5.40
2022-10-20T01:06:41.349Z,5.88
2022-10-20T01:09:31.144Z,5.77
2022-10-20T01:12:31.640Z,5.93
2022-10-20T01:15:29.213Z,5.30
2022-10-20T01:18:27.828Z,5.07
2022-10-20T01:21:49.017Z,5.60
2022-10-20T01:25:02.137Z,5.47
2022-10-20T01:27:56.212Z,5.40
2022-10-20T01:30:50.396Z,5.50
2022-10-20T01:33:45.635Z,5.57
2022-10-20T01:36:39.774Z,5.07
2022-10-20T01:39:35.450Z,5.40
2022-10-20T01:42:26.856Z,5.03
2022-10-20T01:45:19.476Z,5.23
2022-10-20T01:48:11.088Z,4.97
2022-10-20T01:51:01.332Z,4.73
2022-10-20T01:53:50.009Z,5.17
2022-10-20T01:56:43.902Z,5.03
2022-10-20T01:59:55.661Z,4.57
2022-10-20T02:03:05.567Z,5.27
2022-10-20T02:06:10.149Z,4.93
2022-10-20T02:09:01.061Z,4.90
2022-10-20T02:11:54.125Z,4.70
2022-10-20T02:14:44.750Z,5.40
2022-10-20T02:17:35.632Z,4.83
2022-10-20T02:20:26.056Z,4.77
2022-10-20T02:23:14.653Z,5.50
2022-10-20T02:26:05.248Z,5.20
2022-10-20T02:28:58.479Z,5.43
2022-10-20T02:31:48.258Z,5.33
2022-10-20T02:34:40.909Z,5.50
2022-10-20T02:37:32.927Z,5.50
2022-10-20T02:40:23.156Z,5.97
2022-10-20T02:43:12.063Z,5.23
2022-10-20T02:46:00.721Z,5.57
2022-10-20T02:48:49.412Z,5.50
2022-10-20T02:51:38.106Z,5.33
2022-10-20T02:54:28.774Z,5.53
2022-10-20T02:57:17.492Z,5.47
2022-10-20T03:00:07.465Z,5.10
2022-10-20T03:02:56.120Z,5.33
2022-10-20T03:05:45.284Z,5.90
2022-10-20T03:08:33.921Z,6.20
2022-10-20T03:11:24.060Z,6.13
2022-10-20T03:14:13.494Z,5.73
2022-10-20T03:17:02.149Z,6.30
2022-10-20T03:19:50.878Z,5.80
2022-10-20T03:22:39.664Z,5.77
2022-10-20T03:25:28.422Z,5.83
2022-10-20T03:28:19.217Z,6.80
2022-10-20T03:31:08.033Z,6.37
2022-10-20T03:33:56.699Z,6.10
2022-10-20T03:36:45.284Z,6.10
2022-10-20T03:39:34.294Z,6.50
2022-10-20T03:42:22.972Z,6.30
2022-10-20T03:45:15.043Z,6.27
2022-10-20T03:48:07.193Z,6.40
2022-10-20T03:50:55.782Z,6.13
2022-10-20T03:53:44.777Z,6.10
2022-10-20T03:56:37.269Z,6.70
2022-10-20T03:59:29.523Z,6.63
2022-10-20T04:02:30.954Z,6.47
2022-10-20T04:05:21.638Z,6.60
2022-10-20T04:08:10.213Z,6.30
2022-10-20T04:11:00.151Z,6.93
2022-10-20T04:13:48.793Z,7.10
2022-10-20T04:16:37.402Z,7.10
2022-10-20T04:19:27.743Z,6.20
2022-10-20T04:22:16.394Z,6.80
2022-10-20T04:25:05.457Z,6.73
2022-10-20T04:27:54.107Z,7.00
2022-10-20T04:30:43.834Z,6.67
2022-10-20T04:33:32.885Z,6.17
2022-10-20T04:36:22.992Z,6.50
2022-10-20T04:39:11.749Z,7.20
2022-10-20T04:42:01.516Z,7.27
2022-10-20T04:44:50.138Z,7.47
2022-10-20T04:47:39.099Z,7.60
2022-10-20T04:50:28.142Z,7.47
2022-10-20T04:53:29.620Z,7.77
2022-10-20T04:56:20.785Z,8.10
2022-10-20T04:59:13.453Z,7.47
2022-10-20T05:02:02.648Z,7.93
2022-10-20T05:04:51.384Z,7.83
2022-10-20T05:07:40.237Z,7.80
2022-10-20T05:10:33.205Z,7.50
2022-10-20T05:13:25.287Z,7.50
2022-10-20T05:16:14.512Z,8.17
2022-10-20T05:19:03.386Z,8.80
2022-10-20T05:21:52.079Z,8.60
2022-10-20T05:24:40.811Z,8.40
2022-10-20T05:27:30.980Z,8.87
2022-10-20T05:30:19.876Z,8.50
2022-10-20T05:33:08.713Z,8.30
2022-10-20T05:35:57.404Z,8.23
2022-10-20T05:38:46.020Z,10.40
2022-10-20T05:41:38.728Z,9.00
2022-10-20T05:44:29.291Z,10.43
2022-10-20T05:47:18.044Z,10.23
2022-10-20T05:50:07.796Z,10.97
2022-10-20T05:52:56.537Z,10.93
2022-10-20T05:55:45.162Z,12.43
2022-10-20T05:58:33.886Z,12.77
2022-10-20T06:01:26.319Z,13.07
2022-10-20T06:04:16.796Z,13.30
2022-10-20T06:07:06.991Z,12.93
2022-10-20T06:09:55.704Z,13.17
2022-10-20T06:12:44.348Z,13.40
2022-10-20T06:15:34.085Z,13.10
2022-10-20T06:18:24.139Z,13.90
2022-10-20T06:21:14.521Z,14.27
2022-10-20T06:24:04.927Z,14.80
2022-10-20T06:26:53.561Z,14.17
2022-10-20T06:29:42.363Z,13.53
2022-10-20T06:32:31.370Z,18.17
2022-10-20T06:35:21.671Z,15.77
2022-10-20T06:38:10.344Z,14.77
2022-10-20T06:41:02.677Z,13.90
2022-10-20T06:43:55.107Z,13.93
2022-10-20T06:46:43.995Z,13.77
2022-10-20T06:49:32.929Z,13.47
2022-10-20T06:52:23.145Z,13.47
2022-10-20T06:55:11.787Z,13.07
2022-10-20T06:58:00.531Z,21.90
2022-10-20T07:00:49.126Z,20.83
2022-10-20T07:03:38.351Z,16.30
2022-10-20T07:06:29.435Z,14.63
2022-10-20T07:09:21.341Z,14.07
2022-10-20T07:12:09.990Z,15.00
2022-10-20T07:14:58.658Z,13.97
2022-10-20T07:17:49.057Z,13.73
2022-10-20T07:20:37.785Z,13.83
2022-10-20T07:23:27.003Z,14.40
2022-10-20T07:26:19.381Z,12.90
2022-10-20T07:29:08.871Z,13.33
2022-10-20T07:31:59.960Z,13.50
2022-10-20T07:34:50.143Z,12.87
2022-10-20T07:37:39.102Z,14.13
2022-10-20T07:40:28.343Z,13.90
2022-10-20T07:43:18.497Z,13.70
2022-10-20T07:46:07.711Z,13.30
2022-10-20T07:49:02.772Z,13.70
2022-10-20T07:52:00.249Z,13.37
2022-10-20T07:54:48.939Z,13.37
2022-10-20T07:57:37.669Z,13.23
2022-10-20T08:00:27.970Z,13.90
2022-10-20T08:03:16.683Z,13.13
2022-10-20T08:06:06.152Z,13.10
2022-10-20T08:08:55.189Z,13.60
2022-10-20T08:11:43.990Z,12.83
2022-10-20T08:14:35.211Z,13.73
2022-10-20T08:17:26.570Z,13.53
2022-10-20T08:20:17.235Z,13.67
2022-10-20T08:23:08.545Z,13.20
2022-10-20T08:25:57.626Z,12.20
2022-10-20T08:28:46.284Z,11.47
2022-10-20T08:31:35.156Z,10.87
2022-10-20T08:34:25.578Z,16.73
2022-10-20T08:37:14.335Z,11.93
2022-10-20T08:40:03.544Z,11.83
2022-10-20T08:42:52.701Z,12.70
2022-10-20T08:45:41.308Z,11.60
2022-10-20T08:48:35.247Z,11.25
2022-10-20T08:51:27.137Z,11.20
2022-10-20T08:54:17.555Z,10.85
2022-10-20T08:57:16.760Z,12.18
2022-10-20T09:00:15.821Z,10.93
2022-10-20T09:03:14.697Z,11.20
2022-10-20T09:06:10.042Z,11.52
2022-10-20T09:09:01.517Z,11.23
2022-10-20T09:11:50.914Z,13.68
2022-10-20T09:14:39.577Z,13.95
2022-10-20T09:17:28.253Z,13.40
2022-10-20T09:20:23.343Z,13.88
2022-10-20T09:23:35.472Z,13.50
2022-10-20T09:26:54.243Z,13.38
2022-10-20T09:29:45.533Z,11.50
2022-10-20T09:32:51.649Z,10.80
2022-10-20T09:35:41.805Z,10.93
2022-10-20T09:38:32.944Z,10.07
2022-10-20T09:41:23.536Z,10.45
2022-10-20T09:44:23.621Z,10.10
2022-10-20T09:47:14.865Z,9.32
2022-10-20T09:50:06.058Z,9.40
2022-10-20T09:52:55.811Z,11.00
2022-10-20T09:55:49.215Z,15.55
2022-10-20T09:58:42.198Z,15.40
2022-10-20T10:01:32.437Z,14.35
2022-10-20T10:04:33.715Z,12.57
2022-10-20T10:07:32.473Z,12.15
2022-10-20T10:10:27.340Z,12.63
2022-10-20T10:13:27.636Z,10.38
2022-10-20T10:16:19.142Z,10.77
2022-10-20T10:22:05.947Z,11.43
2022-10-20T10:24:57.153Z,9.93
2022-10-20T10:28:00.553Z,10.43
2022-10-20T10:30:50.176Z,10.55
2022-10-20T10:33:38.985Z,6.00
2022-10-20T10:36:34.227Z,4.35
2022-10-20T10:39:22.899Z,3.85
2022-10-20T10:42:35.750Z,3.15
2022-10-20T10:45:42.785Z,3.22
2022-10-20T10:49:05.032Z,2.78
2022-10-20T10:52:06.321Z,2.40
2022-10-20T10:55:04.012Z,2.50
2022-10-20T10:58:03.649Z,2.42
2022-10-20T11:01:01.912Z,2.40
2022-10-20T11:04:14.478Z,3.08
2022-10-20T11:07:10.254Z,2.70
2022-10-20T11:10:07.054Z,2.80
2022-10-20T11:13:29.665Z,2.80
2022-10-20T11:16:32.785Z,2.35
2022-10-20T11:19:45.325Z,2.35
2022-10-20T11:22:44.995Z,2.47
2022-10-20T11:25:39.236Z,2.30
2022-10-20T11:28:32.891Z,2.25
2022-10-20T11:31:27.962Z,1.90
2022-10-20T11:34:22.381Z,2.50
2022-10-20T11:37:19.128Z,3.22
2022-10-20T11:40:21.214Z,2.70
2022-10-20T11:43:18.542Z,2.10
2022-10-20T11:46:11.534Z,2.15
2022-10-20T11:49:01.876Z,2.40
2022-10-20T11:52:22.951Z,1.83
2022-10-20T11:55:44.039Z,2.20
2022-10-20T11:58:53.469Z,2.55
2022-10-20T12:01:59.628Z,1.88
2022-10-20T12:05:17.718Z,1.90
2022-10-20T12:08:37.443Z,2.00
2022-10-20T12:11:33.007Z,1.90
2022-10-20T12:14:28.976Z,2.00
2022-10-20T12:17:35.903Z,1.63
2022-10-20T12:20:55.287Z,1.92
2022-10-20T12:24:04.991Z,2.22
2022-10-20T12:27:26.086Z,2.20
2022-10-20T12:30:45.535Z,1.80
2022-10-20T12:33:40.759Z,1.80
2022-10-20T12:36:40.559Z,1.70
2022-10-20T12:39:31.374Z,1.60
2022-10-20T12:42:23.357Z,1.50
2022-10-20T12:45:37.637Z,1.80
2022-10-20T12:48:28.142Z,1.60
2022-10-20T12:51:26.523Z,1.50
2022-10-20T12:54:23.919Z,1.60
2022-10-20T12:57:29.512Z,1.50
2022-10-20T13:01:05.922Z,1.52
2022-10-20T13:03:55.950Z,1.70
2022-10-20T13:06:44.866Z,1.55
2022-10-20T13:09:53.458Z,1.67
2022-10-20T13:12:42.088Z,1.70
2022-10-20T13:15:33.756Z,1.60
2022-10-20T13:18:28.751Z,1.40
2022-10-20T13:21:33.879Z,1.50
2022-10-20T13:24:28.117Z,1.83
2022-10-20T13:27:17.587Z,1.92
2022-10-20T13:30:09.523Z,1.70
2022-10-20T13:33:33.055Z,1.90
2022-10-20T13:36:21.269Z,2.00
2022-10-20T13:39:17.674Z,2.15
2022-10-20T13:42:18.367Z,2.15
2022-10-20T13:45:17.865Z,1.95
2022-10-20T13:48:19.641Z,1.95
2022-10-20T13:51:15.985Z,1.60
2022-10-20T13:54:08.269Z,1.55
2022-10-20T13:56:59.422Z,2.35
2022-10-20T14:00:00.821Z,2.00
2022-10-20T14:03:01.145Z,1.92
2022-10-20T14:05:49.821Z,2.15
2022-10-20T14:08:44.986Z,2.35
2022-10-20T14:11:34.044Z,2.38
2022-10-20T14:14:26.881Z,2.30
2022-10-20T14:17:21.413Z,2.35
2022-10-20T14:20:19.390Z,2.20
2022-10-20T14:23:11.539Z,2.20
2022-10-20T14:26:00.887Z,1.90
2022-10-20T14:28:52.463Z,2.38
2022-10-20T14:31:43.082Z,2.10
2022-10-20T14:34:36.069Z,2.40
2022-10-20T14:37:31.715Z,2.95
2022-10-20T14:40:23.779Z,3.55
2022-10-20T14:43:18.034Z,2.67
2022-10-20T14:46:09.951Z,2.83
2022-10-20T14:49:01.117Z,3.38
2022-10-20T14:51:57.659Z,2.75
2022-10-20T14:54:46.768Z,2.58
2022-10-20T14:57:46.081Z,3.10
2022-10-20T15:00:37.461Z,3.08
2022-10-20T15:03:26.285Z,2.92
2022-10-20T15:06:19.769Z,2.85
2022-10-20T15:09:20.048Z,2.92
2022-10-20T15:12:16.095Z,3.28
2022-10-20T15:15:08.025Z,3.95
2022-10-20T15:18:14.778Z,3.20
2022-10-20T15:21:03.427Z,3.03
2022-10-20T15:23:53.822Z,3.53
2022-10-20T15:26:42.663Z,3.20
2022-10-20T15:29:31.867Z,2.60
2022-10-20T15:32:20.555Z,3.17
2022-10-20T15:35:13.383Z,3.40
2022-10-20T15:38:01.949Z,2.85
2022-10-20T15:40:52.127Z,2.78
2022-10-20T15:43:40.901Z,2.40
2022-10-20T15:46:29.651Z,2.60
2022-10-20T15:49:18.593Z,6.18
2022-10-20T15:52:07.629Z,4.07
2022-10-20T15:54:56.249Z,2.72
2022-10-20T15:57:46.413Z,2.65
2022-10-20T16:00:35.504Z,2.88
2022-10-20T16:03:24.282Z,3.15
2022-10-20T16:06:14.560Z,3.28
2022-10-20T16:09:05.057Z,2.72
2022-10-20T16:11:53.887Z,2.95
2022-10-20T16:14:44.005Z,3.08
2022-10-20T16:17:33.182Z,4.40
2022-10-20T16:20:21.948Z,3.90
2022-10-20T16:23:10.545Z,2.95
2022-10-20T16:25:59.250Z,2.58
2022-10-20T16:28:48.059Z,2.42
2022-10-20T16:31:38.092Z,2.67
2022-10-20T16:34:28.564Z,3.10
2022-10-20T16:37:17.248Z,2.90
2022-10-20T16:40:06.818Z,3.20
2022-10-20T16:42:55.464Z,2.80
2022-10-20T16:45:44.227Z,3.28
2022-10-20T16:48:36.950Z,3.17
2022-10-20T16:51:26.786Z,2.80
2022-10-20T16:54:15.671Z,3.17
2022-10-20T16:57:04.793Z,3.22
2022-10-20T16:59:53.533Z,3.33
2022-10-20T17:02:44.145Z,3.63
2022-10-20T17:05:34.249Z,3.13
2022-10-20T17:08:22.963Z,3.30
2022-10-20T17:11:13.594Z,3.35
2022-10-20T17:14:02.288Z,3.17
2022-10-20T17:16:51.007Z,3.20
2022-10-20T17:19:41.032Z,3.03
2022-10-20T17:22:31.037Z,3.90
2022-10-20T17:25:19.691Z,2.97
2022-10-20T17:28:09.055Z,2.70
2022-10-20T17:30:57.962Z,3.50
2022-10-20T17:33:46.896Z,3.10
2022-10-20T17:36:35.600Z,3.65
2022-10-20T17:39:25.699Z,3.60
2022-10-20T17:42:14.316Z,4.05
2022-10-20T17:45:02.955Z,4.15
2022-10-20T17:47:53.362Z,5.00
2022-10-20T17:50:41.945Z,4.25
2022-10-20T17:53:32.993Z,4.25
2022-10-20T17:56:24.580Z,3.85
2022-10-20T17:59:15.142Z,4.28
2022-10-20T18:02:03.881Z,4.55
2022-10-20T18:04:52.853Z,4.15
2022-10-20T18:07:41.599Z,3.85
2022-10-20T18:10:30.358Z,4.10
2022-10-20T18:13:20.557Z,4.45
2022-10-20T18:16:10.855Z,4.20
2022-10-20T18:19:00.851Z,4.80
2022-10-20T18:21:49.542Z,4.53
2022-10-20T18:24:38.405Z,4.43
2022-10-20T18:27:27.072Z,4.55
2022-10-20T18:30:17.160Z,5.75
2022-10-20T18:33:05.994Z,8.20
2022-10-20T18:35:54.736Z,5.72
2022-10-20T18:38:45.024Z,5.53
2022-10-20T18:41:37.599Z,5.10
2022-10-20T18:47:22.530Z,5.10
2022-10-20T18:50:11.999Z,4.47
2022-10-20T18:53:00.669Z,5.20
2022-10-20T18:55:59.590Z,4.97
2022-10-20T18:58:50.808Z,4.47
2022-10-20T19:01:41.508Z,5.47
2022-10-20T19:04:31.702Z,4.47
2022-10-20T19:07:20.515Z,4.65
2022-10-20T19:10:09.809Z,4.75
2022-10-20T19:12:58.466Z,4.53
2022-10-20T19:15:47.295Z,4.20
2022-10-20T19:18:36.218Z,4.25
2022-10-20T19:21:28.273Z,7.15
2022-10-20T19:24:18.603Z,4.80
2022-10-20T19:27:25.566Z,4.75
2022-10-20T19:30:15.178Z,5.75
2022-10-20T19:33:03.852Z,6.20
2022-10-20T19:35:52.807Z,5.43
2022-10-20T19:38:43.101Z,5.80
2022-10-20T19:41:31.763Z,5.38
2022-10-20T19:44:20.698Z,4.72
2022-10-20T19:47:10.204Z,5.00
2022-10-20T19:49:58.924Z,5.88
2022-10-20T19:52:47.621Z,7.20
2022-10-20T19:55:37.744Z,6.35
2022-10-20T19:58:26.576Z,6.95
2022-10-20T20:01:16.525Z,7.30
2022-10-20T20:04:06.821Z,6.80
2022-10-20T20:07:01.031Z,6.95
2022-10-20T20:09:51.821Z,7.10
2022-10-20T20:12:42.413Z,7.30
2022-10-20T20:15:31.812Z,7.43
2022-10-20T20:18:20.955Z,8.00
2022-10-20T20:21:09.731Z,10.48
2022-10-20T20:24:00.975Z,10.45
2022-10-20T20:26:50.199Z,11.75
2022-10-20T20:29:40.626Z,10.95
2022-10-20T20:32:32.164Z,11.07
2022-10-20T20:35:20.884Z,11.25
2022-10-20T20:38:09.573Z,11.20
2022-10-20T20:40:59.592Z,12.57
2022-10-20T20:43:48.281Z,12.95
2022-10-20T20:46:38.598Z,15.65
2022-10-20T20:49:27.525Z,16.40
2022-10-20T20:52:16.230Z,17.83
2022-10-20T20:55:05.367Z,18.52
2022-10-20T20:57:54.149Z,20.00
2022-10-20T21:00:42.848Z,21.60
2022-10-20T21:03:33.545Z,23.08
2022-10-20T21:06:25.784Z,23.30
2022-10-20T21:09:22.411Z,23.35
2022-10-20T21:14:59.595Z,23.63
2022-10-20T21:17:48.364Z,23.65
2022-10-20T21:20:38.391Z,23.92
2022-10-20T21:23:27.176Z,23.42
2022-10-20T21:26:18.390Z,22.63
2022-10-20T21:29:07.305Z,21.17
2022-10-20T21:31:56.246Z,21.70
2022-10-20T21:34:44.967Z,21.93
2022-10-20T21:37:35.058Z,23.07
2022-10-20T21:40:23.696Z,23.27
2022-10-20T21:43:14.219Z,23.80
2022-10-20T21:46:12.411Z,24.00
2022-10-20T21:49:03.138Z,23.63
2022-10-20T21:51:53.611Z,23.50
2022-10-20T21:54:43.780Z,24.38
2022-10-20T21:57:32.677Z,24.90
2022-10-20T22:00:23.313Z,24.23
2022-10-20T22:03:12.695Z,25.42
2022-10-20T22:06:03.654Z,25.60
2022-10-20T22:08:54.627Z,24.83
2022-10-20T22:11:46.557Z,24.43
2022-10-20T22:14:35.233Z,24.67
2022-10-20T22:17:23.895Z,24.30
2022-10-20T22:20:12.881Z,24.43
2022-10-20T22:23:02.846Z,26.23
2022-10-20T22:25:54.579Z,25.43
2022-10-20T22:28:44.683Z,26.43
2022-10-20T22:31:33.898Z,27.07
2022-10-20T22:34:22.776Z,28.40
2022-10-20T22:37:11.431Z,27.17
2022-10-20T22:40:00.015Z,27.73
2022-10-20T22:42:48.653Z,27.53
2022-10-20T22:45:38.630Z,28.23
2022-10-20T22:48:28.091Z,25.70
2022-10-20T22:51:17.685Z,26.43
2022-10-20T22:54:08.109Z,25.67
2022-10-20T22:56:56.687Z,25.00
2022-10-20T22:59:45.353Z,24.83
2022-10-20T23:02:35.754Z,23.60
2022-10-20T23:05:24.702Z,22.53
2022-10-20T23:08:13.399Z,23.67
2022-10-20T23:11:02.117Z,22.47
2022-10-20T23:13:51.858Z,22.00
2022-10-20T23:16:40.483Z,21.37
2022-10-20T23:19:30.606Z,21.10
2022-10-20T23:22:19.233Z,21.10
2022-10-20T23:25:08.719Z,21.30
2022-10-20T23:27:57.537Z,19.83
2022-10-20T23:30:46.351Z,20.83
2022-10-20T23:33:35.217Z,19.87
2022-10-20T23:36:25.573Z,20.10
2022-10-20T23:39:14.192Z,19.40
2022-10-20T23:42:06.361Z,19.27
2022-10-20T23:44:56.164Z,19.77
2022-10-20T23:47:44.870Z,18.50
2022-10-20T23:50:33.654Z,18.30
2022-10-20T23:53:23.796Z,17.87
2022-10-20T23:56:12.390Z,19.20
2022-10-20T23:59:00.990Z,18.23
